Sofia, Bulgaria
Current Conditions -  °F | °C
As of 12:30 PM on Saturday 25 Oct 2014 (Local Time) from LBSF Reporting Station
Moderate Snow Moderate Snow  
Wind Chill: 24°   Ceiling: 2700
Heat Index: 34°   Visibility: 2.5mi
Dew Point: 28°   Wind: 13mph
Humidity: 81%   Direction: 20°NNE
Pressure: 30.12"   Gusts: NA
Location:  42.69°N, 23.31°E
Report Text: LBSF 250930Z 02006MPS 350V060 4000 SN FEW021 BKN027 OVC031 01/M02 Q1020 TEMPO 3000 SN
Loading
Personal Weather Stations






























Interactive Weather Map
Tropical Storm Tracking
New forecast layout! Learn more

10-Day Weather Forecast

Advertisements
Track Severe Weather on mobile